Nuevo Cuscatlan, El Salvador

11:10 PM CST on February 12, 2016 (GMT -0600)
Escalon - Zona Rosa | | Change Station
CLOSE
Current Station
Personal Weather Station
Location: San Salvador, San Salvador
Elevation: 2605 ft
Nearby Weather Stations

Elev 2605 ft 13.70 °N, 89.24 °W | Updated 12 minutes ago

Mostly Cloudy
Mostly Cloudy
72.4 °F
Feels Like 75 °F
N
0.0
Wind Variable Wind from SE
Gusts 13.0 mph

Today
High -- | Low -- °F
--% Chance of Precip.
Yesterday
High -- | Low -- °F
Precip. -- in
Pressure 30.06 in
Visibility 6.2 miles
Clouds Mostly Cloudy 4400 ft
Mostly Cloudy 7000 ft
Heat Index 75 °F
Dew Point 61 °F
Humidity 67%
Rainfall 0.00 in
Snow Depth Not available.
6:21 AM 6:01 PM
Waxing Crescent, 27% visible
METAR MHSC 130458Z AUTO 36017KT 9999 BKN044 BKN070 18/17 A3014 RMK AO2 DZE04DZB29E42 SLP179 P0000 T01750169 $
Pressure 30.06 in
Visibility 6.2 miles
Clouds Mostly Cloudy 4400 ft
Mostly Cloudy 7000 ft
Heat Index 75 °F
Dew Point 61 °F
Humidity 67%
Rainfall 0.00 in
Snow Depth Not available.
6:21 AM 6:01 PM
Waxing Crescent, 27% visible
METAR MHSC 130458Z AUTO 36017KT 9999 BKN044 BKN070 18/17 A3014 RMK AO2 DZE04DZB29E42 SLP179 P0000 T01750169 $

10-Day Weather Forecast

No radar image for this location.
×

Almanac

Astronomy

Feb. 12, 2016 Rise Set
Actual Time
Civil Twilight
Nautical Twilight
Astronomical Twilight
Moon
Length of Visible Light
Length of Day
Tomorrow will be .
, % of the Moon is Illuminated

Today's Extremes

Country Highs Country Lows

Community

WunderPhotos

Upload Photos

1,892,501 photos uploaded!

WunderBlog® & News

Nearby

Air Quality

  Air Quality AQ Index Pollutant
Not available.

Snow Depth

Station Depth Elevation

Earthquake Activity

City Distance Mag. Time & Date
Minimum magnitude displayed is 2.5.

Coastal Water Temperatures

Place Temperature

Stations

Nearby Weather Stations

Station Location Temp. Windchill Dew Point Humidity Wind Precip. Elev Updated Type